sensor_id;sensor_type;location;lat;lon;timestamp;P1;durP1;ratioP1;P2;durP2;ratioP2
10847;SDS011;5477;48.806;9.154;2023-07-20T00:00:48;4.40;;;2.00;;
10847;SDS011;5477;48.806;9.154;2023-07-20T00:03:20;4.37;;;2.20;;
10847;SDS011;5477;48.806;9.154;2023-07-20T00:05:51;3.20;;;1.90;;
10847;SDS011;5477;48.806;9.154;2023-07-20T00:08:19;4.77;;;2.00;;
10847;SDS011;5477;48.806;9.154;2023-07-20T00:10:49;6.00;;;2.40;;
10847;SDS011;5477;48.806;9.154;2023-07-20T00:13:17;4.87;;;2.20;;
10847;SDS011;5477;48.806;9.154;2023-07-20T00:15:45;2.83;;;1.80;;
10847;SDS011;5477;48.806;9.154;2023-07-20T00:18:13;3.20;;;2.10;;
10847;SDS011;5477;48.806;9.154;2023-07-20T00:20:41;4.10;;;1.90;;
10847;SDS011;5477;48.806;9.154;2023-07-20T00:23:09;2.60;;;2.03;;
10847;SDS011;5477;48.806;9.154;2023-07-20T00:25:37;3.70;;;2.03;;
10847;SDS011;5477;48.806;9.154;2023-07-20T00:28:07;4.57;;;2.10;;
10847;SDS011;5477;48.806;9.154;2023-07-20T00:30:35;2.70;;;1.87;;
10847;SDS011;5477;48.806;9.154;2023-07-20T00:33:06;3.70;;;1.80;;
10847;SDS011;5477;48.806;9.154;2023-07-20T00:35:37;2.60;;;2.03;;
10847;SDS011;5477;48.806;9.154;2023-07-20T00:38:05;5.23;;;2.00;;
10847;SDS011;5477;48.806;9.154;2023-07-20T00:40:35;2.87;;;2.00;;
10847;SDS011;5477;48.806;9.154;2023-07-20T00:43:06;3.33;;;2.07;;
10847;SDS011;5477;48.806;9.154;2023-07-20T00:45:36;1.87;;;1.70;;
10847;SDS011;5477;48.806;9.154;2023-07-20T00:48:05;4.97;;;2.27;;
10847;SDS011;5477;48.806;9.154;2023-07-20T00:50:35;3.37;;;1.63;;
10847;SDS011;5477;48.806;9.154;2023-07-20T00:53:03;4.47;;;2.30;;
10847;SDS011;5477;48.806;9.154;2023-07-20T00:55:32;1.93;;;1.73;;
10847;SDS011;5477;48.806;9.154;2023-07-20T00:58:01;2.87;;;1.80;;
10847;SDS011;5477;48.806;9.154;2023-07-20T01:00:30;2.60;;;1.80;;
10847;SDS011;5477;48.806;9.154;2023-07-20T01:02:58;3.80;;;2.00;;
10847;SDS011;5477;48.806;9.154;2023-07-20T01:05:28;2.17;;;1.87;;
10847;SDS011;5477;48.806;9.154;2023-07-20T01:08:06;2.67;;;1.90;;
10847;SDS011;5477;48.806;9.154;2023-07-20T01:10:40;2.00;;;1.80;;
10847;SDS011;5477;48.806;9.154;2023-07-20T01:13:11;3.63;;;2.03;;
10847;SDS011;5477;48.806;9.154;2023-07-20T01:15:43;4.27;;;2.10;;
10847;SDS011;5477;48.806;9.154;2023-07-20T01:18:17;4.03;;;1.97;;
10847;SDS011;5477;48.806;9.154;2023-07-20T01:20:45;2.70;;;1.77;;
10847;SDS011;5477;48.806;9.154;2023-07-20T01:23:19;4.03;;;2.27;;
10847;SDS011;5477;48.806;9.154;2023-07-20T01:26:07;4.20;;;1.90;;
10847;SDS011;5477;48.806;9.154;2023-07-20T01:28:57;2.80;;;2.10;;
10847;SDS011;5477;48.806;9.154;2023-07-20T01:31:41;3.37;;;2.00;;
10847;SDS011;5477;48.806;9.154;2023-07-20T01:34:11;4.10;;;2.00;;
10847;SDS011;5477;48.806;9.154;2023-07-20T01:36:41;2.87;;;1.90;;
10847;SDS011;5477;48.806;9.154;2023-07-20T01:39:10;3.03;;;1.80;;
10847;SDS011;5477;48.806;9.154;2023-07-20T01:41:39;2.37;;;1.90;;
10847;SDS011;5477;48.806;9.154;2023-07-20T01:44:07;3.00;;;1.80;;
10847;SDS011;5477;48.806;9.154;2023-07-20T01:46:36;3.37;;;1.97;;
10847;SDS011;5477;48.806;9.154;2023-07-20T01:49:06;4.50;;;2.17;;
10847;SDS011;5477;48.806;9.154;2023-07-20T01:51:33;5.57;;;2.30;;
10847;SDS011;5477;48.806;9.154;2023-07-20T01:54:01;4.00;;;2.07;;
10847;SDS011;5477;48.806;9.154;2023-07-20T01:56:29;3.93;;;2.03;;
10847;SDS011;5477;48.806;9.154;2023-07-20T01:58:57;3.53;;;2.10;;
10847;SDS011;5477;48.806;9.154;2023-07-20T02:01:25;2.67;;;1.97;;
10847;SDS011;5477;48.806;9.154;2023-07-20T02:03:55;2.27;;;1.90;;
10847;SDS011;5477;48.806;9.154;2023-07-20T02:06:24;5.90;;;1.90;;
10847;SDS011;5477;48.806;9.154;2023-07-20T02:08:52;6.30;;;2.30;;
10847;SDS011;5477;48.806;9.154;2023-07-20T02:11:21;2.47;;;2.00;;
10847;SDS011;5477;48.806;9.154;2023-07-20T02:13:50;2.70;;;2.20;;
10847;SDS011;5477;48.806;9.154;2023-07-20T02:16:18;4.37;;;2.17;;
10847;SDS011;5477;48.806;9.154;2023-07-20T02:18:46;3.30;;;2.20;;
10847;SDS011;5477;48.806;9.154;2023-07-20T02:21:14;4.50;;;2.30;;
10847;SDS011;5477;48.806;9.154;2023-07-20T02:23:43;5.00;;;2.43;;
10847;SDS011;5477;48.806;9.154;2023-07-20T02:26:11;6.00;;;2.37;;
10847;SDS011;5477;48.806;9.154;2023-07-20T02:28:39;5.13;;;2.63;;
10847;SDS011;5477;48.806;9.154;2023-07-20T02:31:07;3.33;;;2.10;;
10847;SDS011;5477;48.806;9.154;2023-07-20T02:33:35;3.87;;;2.10;;
10847;SDS011;5477;48.806;9.154;2023-07-20T02:36:03;4.53;;;2.23;;
10847;SDS011;5477;48.806;9.154;2023-07-20T02:38:31;3.90;;;2.00;;
10847;SDS011;5477;48.806;9.154;2023-07-20T02:41:01;4.43;;;2.10;;
10847;SDS011;5477;48.806;9.154;2023-07-20T02:43:29;6.30;;;2.20;;
10847;SDS011;5477;48.806;9.154;2023-07-20T02:45:56;3.03;;;2.03;;
10847;SDS011;5477;48.806;9.154;2023-07-20T02:48:24;2.50;;;2.30;;
10847;SDS011;5477;48.806;9.154;2023-07-20T02:50:52;3.87;;;2.20;;
10847;SDS011;5477;48.806;9.154;2023-07-20T02:53:20;5.83;;;2.60;;
10847;SDS011;5477;48.806;9.154;2023-07-20T02:55:48;4.33;;;2.00;;
10847;SDS011;5477;48.806;9.154;2023-07-20T02:58:17;3.43;;;1.93;;
10847;SDS011;5477;48.806;9.154;2023-07-20T03:00:45;2.93;;;2.10;;
10847;SDS011;5477;48.806;9.154;2023-07-20T03:03:13;3.73;;;2.10;;
10847;SDS011;5477;48.806;9.154;2023-07-20T03:05:42;4.47;;;2.70;;
10847;SDS011;5477;48.806;9.154;2023-07-20T03:08:10;2.77;;;1.93;;
10847;SDS011;5477;48.806;9.154;2023-07-20T03:10:38;3.20;;;2.23;;
10847;SDS011;5477;48.806;9.154;2023-07-20T03:13:06;3.70;;;2.17;;
10847;SDS011;5477;48.806;9.154;2023-07-20T03:15:36;3.30;;;2.60;;
10847;SDS011;5477;48.806;9.154;2023-07-20T03:18:04;5.30;;;2.03;;
10847;SDS011;5477;48.806;9.154;2023-07-20T03:20:32;4.57;;;2.30;;
10847;SDS011;5477;48.806;9.154;2023-07-20T03:23:00;5.23;;;2.20;;
10847;SDS011;5477;48.806;9.154;2023-07-20T03:25:28;3.80;;;2.40;;
10847;SDS011;5477;48.806;9.154;2023-07-20T03:27:56;2.70;;;2.33;;
10847;SDS011;5477;48.806;9.154;2023-07-20T03:30:25;2.73;;;2.43;;
10847;SDS011;5477;48.806;9.154;2023-07-20T03:32:54;5.00;;;2.37;;
10847;SDS011;5477;48.806;9.154;2023-07-20T03:35:22;4.70;;;2.40;;
10847;SDS011;5477;48.806;9.154;2023-07-20T03:37:50;3.47;;;2.30;;
10847;SDS011;5477;48.806;9.154;2023-07-20T03:40:18;4.37;;;2.20;;
10847;SDS011;5477;48.806;9.154;2023-07-20T03:42:46;3.30;;;2.20;;
10847;SDS011;5477;48.806;9.154;2023-07-20T03:45:14;3.00;;;2.43;;
10847;SDS011;5477;48.806;9.154;2023-07-20T03:47:42;2.90;;;2.00;;
10847;SDS011;5477;48.806;9.154;2023-07-20T03:50:12;3.43;;;2.33;;
10847;SDS011;5477;48.806;9.154;2023-07-20T03:52:40;3.20;;;2.10;;
10847;SDS011;5477;48.806;9.154;2023-07-20T03:55:09;3.93;;;2.27;;
10847;SDS011;5477;48.806;9.154;2023-07-20T03:57:37;3.30;;;2.33;;
10847;SDS011;5477;48.806;9.154;2023-07-20T04:00:05;5.43;;;2.30;;
10847;SDS011;5477;48.806;9.154;2023-07-20T04:02:38;4.67;;;2.20;;
10847;SDS011;5477;48.806;9.154;2023-07-20T04:05:06;4.93;;;2.43;;
10847;SDS011;5477;48.806;9.154;2023-07-20T04:07:36;3.07;;;2.17;;
10847;SDS011;5477;48.806;9.154;2023-07-20T04:10:04;5.57;;;2.20;;
10847;SDS011;5477;48.806;9.154;2023-07-20T04:12:34;6.33;;;2.17;;
10847;SDS011;5477;48.806;9.154;2023-07-20T04:15:03;3.40;;;2.20;;
10847;SDS011;5477;48.806;9.154;2023-07-20T04:17:32;4.23;;;2.67;;
10847;SDS011;5477;48.806;9.154;2023-07-20T04:20:00;5.00;;;2.27;;
10847;SDS011;5477;48.806;9.154;2023-07-20T04:22:29;5.37;;;2.60;;
10847;SDS011;5477;48.806;9.154;2023-07-20T04:24:58;3.00;;;2.27;;
10847;SDS011;5477;48.806;9.154;2023-07-20T04:27:26;5.87;;;2.40;;
10847;SDS011;5477;48.806;9.154;2023-07-20T04:29:54;2.60;;;2.20;;
10847;SDS011;5477;48.806;9.154;2023-07-20T04:32:23;2.63;;;2.23;;
10847;SDS011;5477;48.806;9.154;2023-07-20T04:34:51;4.47;;;2.47;;
10847;SDS011;5477;48.806;9.154;2023-07-20T04:37:19;4.90;;;2.23;;
10847;SDS011;5477;48.806;9.154;2023-07-20T04:39:48;5.20;;;2.50;;
10847;SDS011;5477;48.806;9.154;2023-07-20T04:42:17;4.50;;;2.20;;
10847;SDS011;5477;48.806;9.154;2023-07-20T04:44:46;2.97;;;2.47;;
10847;SDS011;5477;48.806;9.154;2023-07-20T04:47:15;2.90;;;2.00;;
10847;SDS011;5477;48.806;9.154;2023-07-20T04:49:43;4.33;;;2.33;;
10847;SDS011;5477;48.806;9.154;2023-07-20T04:52:11;4.37;;;2.20;;
10847;SDS011;5477;48.806;9.154;2023-07-20T04:54:39;4.17;;;2.17;;
10847;SDS011;5477;48.806;9.154;2023-07-20T04:57:11;3.17;;;2.20;;
10847;SDS011;5477;48.806;9.154;2023-07-20T04:59:45;3.63;;;2.03;;
10847;SDS011;5477;48.806;9.154;2023-07-20T05:02:13;3.93;;;1.90;;
10847;SDS011;5477;48.806;9.154;2023-07-20T05:04:41;2.80;;;2.00;;
10847;SDS011;5477;48.806;9.154;2023-07-20T05:07:10;2.77;;;2.00;;
10847;SDS011;5477;48.806;9.154;2023-07-20T05:09:38;4.63;;;2.20;;
10847;SDS011;5477;48.806;9.154;2023-07-20T05:12:07;2.13;;;1.90;;
10847;SDS011;5477;48.806;9.154;2023-07-20T05:14:35;4.83;;;2.93;;
10847;SDS011;5477;48.806;9.154;2023-07-20T05:17:05;4.33;;;2.40;;
10847;SDS011;5477;48.806;9.154;2023-07-20T05:19:33;6.70;;;2.13;;
10847;SDS011;5477;48.806;9.154;2023-07-20T05:22:01;2.97;;;2.03;;
10847;SDS011;5477;48.806;9.154;2023-07-20T05:24:31;3.60;;;2.10;;
10847;SDS011;5477;48.806;9.154;2023-07-20T05:26:59;4.07;;;2.10;;
10847;SDS011;5477;48.806;9.154;2023-07-20T05:29:28;3.97;;;2.40;;
10847;SDS011;5477;48.806;9.154;2023-07-20T05:31:56;3.57;;;2.00;;
10847;SDS011;5477;48.806;9.154;2023-07-20T05:34:25;2.40;;;1.90;;
10847;SDS011;5477;48.806;9.154;2023-07-20T05:36:54;5.37;;;2.10;;
10847;SDS011;5477;48.806;9.154;2023-07-20T05:39:22;4.13;;;2.07;;
10847;SDS011;5477;48.806;9.154;2023-07-20T05:41:50;4.23;;;2.00;;
10847;SDS011;5477;48.806;9.154;2023-07-20T05:44:18;4.63;;;2.17;;
10847;SDS011;5477;48.806;9.154;2023-07-20T05:46:46;4.47;;;2.30;;
10847;SDS011;5477;48.806;9.154;2023-07-20T05:49:23;5.70;;;2.27;;
10847;SDS011;5477;48.806;9.154;2023-07-20T05:51:53;2.60;;;1.97;;
10847;SDS011;5477;48.806;9.154;2023-07-20T05:54:21;3.33;;;2.10;;
10847;SDS011;5477;48.806;9.154;2023-07-20T05:56:49;3.13;;;1.80;;
10847;SDS011;5477;48.806;9.154;2023-07-20T05:59:17;4.87;;;2.50;;
10847;SDS011;5477;48.806;9.154;2023-07-20T06:01:45;5.43;;;2.03;;
10847;SDS011;5477;48.806;9.154;2023-07-20T06:04:15;4.83;;;1.90;;
10847;SDS011;5477;48.806;9.154;2023-07-20T06:06:44;2.30;;;1.93;;
10847;SDS011;5477;48.806;9.154;2023-07-20T06:09:12;3.23;;;1.87;;
10847;SDS011;5477;48.806;9.154;2023-07-20T06:11:40;2.23;;;1.80;;
10847;SDS011;5477;48.806;9.154;2023-07-20T06:14:08;4.80;;;2.03;;
10847;SDS011;5477;48.806;9.154;2023-07-20T06:16:37;3.97;;;2.10;;
10847;SDS011;5477;48.806;9.154;2023-07-20T06:19:05;4.90;;;2.10;;
10847;SDS011;5477;48.806;9.154;2023-07-20T06:21:33;4.20;;;2.00;;
10847;SDS011;5477;48.806;9.154;2023-07-20T06:24:02;4.07;;;1.83;;
10847;SDS011;5477;48.806;9.154;2023-07-20T06:26:31;2.13;;;1.80;;
10847;SDS011;5477;48.806;9.154;2023-07-20T06:29:04;3.87;;;1.87;;
10847;SDS011;5477;48.806;9.154;2023-07-20T06:31:33;3.57;;;1.80;;
10847;SDS011;5477;48.806;9.154;2023-07-20T06:34:01;5.67;;;1.90;;
10847;SDS011;5477;48.806;9.154;2023-07-20T06:36:29;6.07;;;2.07;;
10847;SDS011;5477;48.806;9.154;2023-07-20T06:38:57;6.20;;;2.03;;
10847;SDS011;5477;48.806;9.154;2023-07-20T06:41:30;5.97;;;2.27;;
10847;SDS011;5477;48.806;9.154;2023-07-20T06:44:01;4.03;;;1.90;;
10847;SDS011;5477;48.806;9.154;2023-07-20T06:46:30;3.57;;;2.10;;
10847;SDS011;5477;48.806;9.154;2023-07-20T06:48:58;4.53;;;1.80;;
10847;SDS011;5477;48.806;9.154;2023-07-20T06:51:28;9.17;;;2.00;;
10847;SDS011;5477;48.806;9.154;2023-07-20T06:53:56;7.70;;;2.87;;
10847;SDS011;5477;48.806;9.154;2023-07-20T06:56:24;3.83;;;2.07;;
10847;SDS011;5477;48.806;9.154;2023-07-20T06:58:56;6.10;;;2.33;;
10847;SDS011;5477;48.806;9.154;2023-07-20T07:01:24;3.07;;;2.10;;
10847;SDS011;5477;48.806;9.154;2023-07-20T07:03:52;4.37;;;2.23;;
10847;SDS011;5477;48.806;9.154;2023-07-20T07:06:21;4.03;;;1.90;;
10847;SDS011;5477;48.806;9.154;2023-07-20T07:08:51;3.17;;;2.13;;
10847;SDS011;5477;48.806;9.154;2023-07-20T07:11:20;6.00;;;2.27;;
10847;SDS011;5477;48.806;9.154;2023-07-20T07:13:49;3.37;;;2.23;;
10847;SDS011;5477;48.806;9.154;2023-07-20T07:16:19;5.70;;;2.00;;
10847;SDS011;5477;48.806;9.154;2023-07-20T07:18:47;3.70;;;2.30;;
10847;SDS011;5477;48.806;9.154;2023-07-20T07:21:17;5.43;;;1.80;;
10847;SDS011;5477;48.806;9.154;2023-07-20T07:23:45;4.00;;;2.00;;
10847;SDS011;5477;48.806;9.154;2023-07-20T07:26:15;2.37;;;1.70;;
10847;SDS011;5477;48.806;9.154;2023-07-20T07:28:43;3.27;;;2.00;;
10847;SDS011;5477;48.806;9.154;2023-07-20T07:31:11;4.67;;;2.47;;
10847;SDS011;5477;48.806;9.154;2023-07-20T07:33:41;3.53;;;2.00;;
10847;SDS011;5477;48.806;9.154;2023-07-20T07:36:09;2.77;;;1.90;;
10847;SDS011;5477;48.806;9.154;2023-07-20T07:38:37;4.03;;;2.07;;
10847;SDS011;5477;48.806;9.154;2023-07-20T07:41:25;3.67;;;1.80;;
10847;SDS011;5477;48.806;9.154;2023-07-20T07:43:53;4.53;;;2.10;;
10847;SDS011;5477;48.806;9.154;2023-07-20T07:46:21;4.37;;;2.20;;
10847;SDS011;5477;48.806;9.154;2023-07-20T07:48:51;3.73;;;2.10;;
10847;SDS011;5477;48.806;9.154;2023-07-20T07:51:19;4.00;;;2.00;;
10847;SDS011;5477;48.806;9.154;2023-07-20T07:53:47;7.00;;;2.30;;
10847;SDS011;5477;48.806;9.154;2023-07-20T07:56:16;3.07;;;2.20;;
10847;SDS011;5477;48.806;9.154;2023-07-20T07:58:49;5.17;;;1.97;;
10847;SDS011;5477;48.806;9.154;2023-07-20T08:01:18;3.70;;;2.30;;
10847;SDS011;5477;48.806;9.154;2023-07-20T08:03:46;4.07;;;2.10;;
10847;SDS011;5477;48.806;9.154;2023-07-20T08:06:15;4.57;;;2.13;;
10847;SDS011;5477;48.806;9.154;2023-07-20T08:08:43;4.07;;;2.20;;
10847;SDS011;5477;48.806;9.154;2023-07-20T08:11:11;6.07;;;2.10;;
10847;SDS011;5477;48.806;9.154;2023-07-20T08:13:41;3.53;;;2.30;;
10847;SDS011;5477;48.806;9.154;2023-07-20T08:16:09;4.53;;;2.60;;
10847;SDS011;5477;48.806;9.154;2023-07-20T08:18:37;5.40;;;2.20;;
10847;SDS011;5477;48.806;9.154;2023-07-20T08:21:05;4.07;;;1.80;;
10847;SDS011;5477;48.806;9.154;2023-07-20T08:23:35;4.17;;;2.30;;
10847;SDS011;5477;48.806;9.154;2023-07-20T08:26:03;3.83;;;2.30;;
10847;SDS011;5477;48.806;9.154;2023-07-20T08:28:31;4.60;;;2.20;;
10847;SDS011;5477;48.806;9.154;2023-07-20T08:30:59;7.10;;;2.90;;
10847;SDS011;5477;48.806;9.154;2023-07-20T08:33:29;3.50;;;2.13;;
10847;SDS011;5477;48.806;9.154;2023-07-20T08:36:00;2.90;;;2.00;;
10847;SDS011;5477;48.806;9.154;2023-07-20T08:38:29;4.40;;;2.37;;
10847;SDS011;5477;48.806;9.154;2023-07-20T08:40:59;3.13;;;1.93;;
10847;SDS011;5477;48.806;9.154;2023-07-20T08:43:28;5.70;;;2.20;;
10847;SDS011;5477;48.806;9.154;2023-07-20T08:45:57;3.53;;;2.20;;
10847;SDS011;5477;48.806;9.154;2023-07-20T08:48:26;3.07;;;1.87;;
10847;SDS011;5477;48.806;9.154;2023-07-20T08:50:55;6.03;;;2.30;;
10847;SDS011;5477;48.806;9.154;2023-07-20T08:53:23;4.03;;;2.00;;
10847;SDS011;5477;48.806;9.154;2023-07-20T08:55:51;4.83;;;2.30;;
10847;SDS011;5477;48.806;9.154;2023-07-20T08:58:21;5.50;;;2.73;;
10847;SDS011;5477;48.806;9.154;2023-07-20T09:00:52;4.60;;;1.97;;
10847;SDS011;5477;48.806;9.154;2023-07-20T09:03:21;4.77;;;2.00;;
10847;SDS011;5477;48.806;9.154;2023-07-20T09:05:50;6.07;;;1.97;;
10847;SDS011;5477;48.806;9.154;2023-07-20T09:08:18;5.20;;;1.77;;
10847;SDS011;5477;48.806;9.154;2023-07-20T09:10:46;5.33;;;1.80;;
10847;SDS011;5477;48.806;9.154;2023-07-20T09:13:14;4.33;;;1.70;;
10847;SDS011;5477;48.806;9.154;2023-07-20T09:15:47;4.93;;;1.80;;
10847;SDS011;5477;48.806;9.154;2023-07-20T09:18:23;3.10;;;2.00;;
10847;SDS011;5477;48.806;9.154;2023-07-20T09:20:52;2.50;;;1.70;;
10847;SDS011;5477;48.806;9.154;2023-07-20T09:23:20;3.87;;;1.80;;
10847;SDS011;5477;48.806;9.154;2023-07-20T09:25:57;4.13;;;2.20;;
10847;SDS011;5477;48.806;9.154;2023-07-20T09:28:26;6.07;;;2.30;;
10847;SDS011;5477;48.806;9.154;2023-07-20T09:30:56;3.83;;;1.90;;
10847;SDS011;5477;48.806;9.154;2023-07-20T09:33:24;4.77;;;1.83;;
10847;SDS011;5477;48.806;9.154;2023-07-20T09:35:54;4.57;;;1.90;;
10847;SDS011;5477;48.806;9.154;2023-07-20T09:38:27;3.00;;;2.00;;
10847;SDS011;5477;48.806;9.154;2023-07-20T09:41:15;5.53;;;1.73;;
10847;SDS011;5477;48.806;9.154;2023-07-20T09:43:48;4.97;;;2.20;;
10847;SDS011;5477;48.806;9.154;2023-07-20T09:46:18;2.87;;;1.77;;
10847;SDS011;5477;48.806;9.154;2023-07-20T09:48:52;3.80;;;1.80;;
10847;SDS011;5477;48.806;9.154;2023-07-20T09:51:24;4.47;;;1.90;;
10847;SDS011;5477;48.806;9.154;2023-07-20T09:53:52;2.60;;;1.80;;
10847;SDS011;5477;48.806;9.154;2023-07-20T09:56:21;5.40;;;1.80;;
10847;SDS011;5477;48.806;9.154;2023-07-20T09:58:50;1.70;;;1.50;;
10847;SDS011;5477;48.806;9.154;2023-07-20T10:01:20;2.70;;;1.70;;
10847;SDS011;5477;48.806;9.154;2023-07-20T10:03:52;1.80;;;1.50;;
10847;SDS011;5477;48.806;9.154;2023-07-20T10:06:23;2.27;;;1.50;;
10847;SDS011;5477;48.806;9.154;2023-07-20T10:08:52;2.63;;;1.60;;
10847;SDS011;5477;48.806;9.154;2023-07-20T10:11:23;3.07;;;1.50;;
10847;SDS011;5477;48.806;9.154;2023-07-20T10:13:54;2.40;;;1.33;;
10847;SDS011;5477;48.806;9.154;2023-07-20T10:16:28;1.40;;;1.30;;
10847;SDS011;5477;48.806;9.154;2023-07-20T10:19:02;1.43;;;1.10;;
10847;SDS011;5477;48.806;9.154;2023-07-20T10:21:47;2.27;;;1.37;;
10847;SDS011;5477;48.806;9.154;2023-07-20T10:24:22;2.67;;;1.33;;
10847;SDS011;5477;48.806;9.154;2023-07-20T10:26:51;1.93;;;1.30;;
10847;SDS011;5477;48.806;9.154;2023-07-20T10:29:19;3.90;;;1.30;;
10847;SDS011;5477;48.806;9.154;2023-07-20T10:31:49;2.63;;;1.40;;
10847;SDS011;5477;48.806;9.154;2023-07-20T10:34:21;1.97;;;1.40;;
10847;SDS011;5477;48.806;9.154;2023-07-20T10:36:49;2.90;;;1.40;;
10847;SDS011;5477;48.806;9.154;2023-07-20T10:39:22;2.33;;;1.30;;
10847;SDS011;5477;48.806;9.154;2023-07-20T10:41:59;2.40;;;1.30;;
10847;SDS011;5477;48.806;9.154;2023-07-20T10:44:27;3.00;;;1.30;;
10847;SDS011;5477;48.806;9.154;2023-07-20T10:47:00;2.03;;;1.40;;
10847;SDS011;5477;48.806;9.154;2023-07-20T10:49:32;2.50;;;1.57;;
10847;SDS011;5477;48.806;9.154;2023-07-20T10:52:04;3.67;;;1.50;;
10847;SDS011;5477;48.806;9.154;2023-07-20T10:54:34;3.03;;;1.63;;
10847;SDS011;5477;48.806;9.154;2023-07-20T10:57:21;3.30;;;1.63;;
10847;SDS011;5477;48.806;9.154;2023-07-20T10:59:51;2.33;;;1.40;;
10847;SDS011;5477;48.806;9.154;2023-07-20T11:02:20;1.50;;;1.40;;
10847;SDS011;5477;48.806;9.154;2023-07-20T11:04:51;2.00;;;1.50;;
10847;SDS011;5477;48.806;9.154;2023-07-20T11:10:15;1.73;;;1.10;;
10847;SDS011;5477;48.806;9.154;2023-07-20T11:15:44;3.07;;;1.30;;
10847;SDS011;5477;48.806;9.154;2023-07-20T11:18:15;2.13;;;1.38;;
10847;SDS011;5477;48.806;9.154;2023-07-20T11:20:43;1.50;;;1.20;;
10847;SDS011;5477;48.806;9.154;2023-07-20T11:23:11;3.27;;;1.40;;
10847;SDS011;5477;48.806;9.154;2023-07-20T11:25:40;4.07;;;1.60;;
10847;SDS011;5477;48.806;9.154;2023-07-20T11:28:08;2.63;;;1.33;;
10847;SDS011;5477;48.806;9.154;2023-07-20T11:30:37;2.47;;;1.60;;
10847;SDS011;5477;48.806;9.154;2023-07-20T11:33:08;2.50;;;1.38;;
10847;SDS011;5477;48.806;9.154;2023-07-20T11:35:37;1.30;;;1.00;;
10847;SDS011;5477;48.806;9.154;2023-07-20T11:38:11;1.73;;;1.40;;
10847;SDS011;5477;48.806;9.154;2023-07-20T11:40:42;1.90;;;1.30;;
10847;SDS011;5477;48.806;9.154;2023-07-20T11:43:11;2.97;;;1.60;;
10847;SDS011;5477;48.806;9.154;2023-07-20T11:45:43;5.03;;;1.30;;
10847;SDS011;5477;48.806;9.154;2023-07-20T11:48:14;1.20;;;1.10;;
10847;SDS011;5477;48.806;9.154;2023-07-20T11:50:44;2.40;;;1.25;;
10847;SDS011;5477;48.806;9.154;2023-07-20T11:53:12;3.80;;;1.50;;
10847;SDS011;5477;48.806;9.154;2023-07-20T11:55:41;2.17;;;1.35;;
10847;SDS011;5477;48.806;9.154;2023-07-20T11:58:09;2.55;;;1.30;;
10847;SDS011;5477;48.806;9.154;2023-07-20T12:00:38;2.20;;;1.40;;
10847;SDS011;5477;48.806;9.154;2023-07-20T12:03:07;1.10;;;1.00;;
10847;SDS011;5477;48.806;9.154;2023-07-20T12:05:37;2.25;;;1.52;;
10847;SDS011;5477;48.806;9.154;2023-07-20T12:08:27;2.47;;;1.15;;
10847;SDS011;5477;48.806;9.154;2023-07-20T12:10:55;2.33;;;1.38;;
10847;SDS011;5477;48.806;9.154;2023-07-20T12:13:23;3.10;;;1.35;;
10847;SDS011;5477;48.806;9.154;2023-07-20T12:16:06;2.22;;;1.30;;
10847;SDS011;5477;48.806;9.154;2023-07-20T12:18:37;2.85;;;1.40;;
10847;SDS011;5477;48.806;9.154;2023-07-20T12:21:05;1.60;;;1.30;;
10847;SDS011;5477;48.806;9.154;2023-07-20T12:23:38;3.72;;;1.75;;
10847;SDS011;5477;48.806;9.154;2023-07-20T12:26:07;2.75;;;1.30;;
10847;SDS011;5477;48.806;9.154;2023-07-20T12:28:40;4.25;;;1.30;;
10847;SDS011;5477;48.806;9.154;2023-07-20T12:31:08;3.78;;;2.03;;
10847;SDS011;5477;48.806;9.154;2023-07-20T12:33:37;1.90;;;1.42;;
10847;SDS011;5477;48.806;9.154;2023-07-20T12:36:05;1.45;;;1.35;;
10847;SDS011;5477;48.806;9.154;2023-07-20T12:38:33;2.08;;;1.40;;
10847;SDS011;5477;48.806;9.154;2023-07-20T12:41:03;1.27;;;1.05;;
10847;SDS011;5477;48.806;9.154;2023-07-20T12:43:31;2.42;;;1.38;;
10847;SDS011;5477;48.806;9.154;2023-07-20T12:45:59;2.28;;;1.20;;
10847;SDS011;5477;48.806;9.154;2023-07-20T12:48:27;1.50;;;1.20;;
10847;SDS011;5477;48.806;9.154;2023-07-20T12:50:55;1.20;;;1.10;;
10847;SDS011;5477;48.806;9.154;2023-07-20T12:53:23;1.40;;;1.30;;
10847;SDS011;5477;48.806;9.154;2023-07-20T12:55:51;1.60;;;1.25;;
10847;SDS011;5477;48.806;9.154;2023-07-20T12:58:21;3.42;;;1.40;;
10847;SDS011;5477;48.806;9.154;2023-07-20T13:00:50;1.80;;;1.20;;
10847;SDS011;5477;48.806;9.154;2023-07-20T13:03:18;2.70;;;1.08;;
10847;SDS011;5477;48.806;9.154;2023-07-20T13:05:49;2.13;;;1.30;;
10847;SDS011;5477;48.806;9.154;2023-07-20T13:08:20;4.80;;;1.45;;
10847;SDS011;5477;48.806;9.154;2023-07-20T13:10:51;3.80;;;1.40;;
10847;SDS011;5477;48.806;9.154;2023-07-20T13:13:21;1.58;;;1.20;;
10847;SDS011;5477;48.806;9.154;2023-07-20T13:15:49;1.40;;;1.10;;
10847;SDS011;5477;48.806;9.154;2023-07-20T13:18:17;3.35;;;1.30;;
10847;SDS011;5477;48.806;9.154;2023-07-20T13:20:45;2.58;;;1.30;;
10847;SDS011;5477;48.806;9.154;2023-07-20T13:23:14;1.85;;;1.30;;
10847;SDS011;5477;48.806;9.154;2023-07-20T13:25:42;1.80;;;1.27;;
10847;SDS011;5477;48.806;9.154;2023-07-20T13:28:10;3.63;;;1.25;;
10847;SDS011;5477;48.806;9.154;2023-07-20T13:30:40;3.47;;;1.30;;
10847;SDS011;5477;48.806;9.154;2023-07-20T13:33:08;3.25;;;1.27;;
10847;SDS011;5477;48.806;9.154;2023-07-20T13:35:42;3.47;;;1.10;;
10847;SDS011;5477;48.806;9.154;2023-07-20T13:38:13;2.25;;;1.17;;
10847;SDS011;5477;48.806;9.154;2023-07-20T13:40:42;1.67;;;1.33;;
10847;SDS011;5477;48.806;9.154;2023-07-20T13:43:11;3.33;;;1.38;;
10847;SDS011;5477;48.806;9.154;2023-07-20T13:45:40;3.60;;;1.60;;
10847;SDS011;5477;48.806;9.154;2023-07-20T13:48:08;2.95;;;1.20;;
10847;SDS011;5477;48.806;9.154;2023-07-20T13:50:36;2.67;;;1.33;;
10847;SDS011;5477;48.806;9.154;2023-07-20T13:53:24;1.52;;;1.30;;
10847;SDS011;5477;48.806;9.154;2023-07-20T13:55:56;2.60;;;1.45;;
10847;SDS011;5477;48.806;9.154;2023-07-20T13:58:28;2.72;;;1.40;;
10847;SDS011;5477;48.806;9.154;2023-07-20T14:00:58;1.83;;;1.30;;
10847;SDS011;5477;48.806;9.154;2023-07-20T14:03:26;2.65;;;1.17;;
10847;SDS011;5477;48.806;9.154;2023-07-20T14:05:54;7.22;;;1.48;;
10847;SDS011;5477;48.806;9.154;2023-07-20T14:08:25;1.33;;;1.15;;
10847;SDS011;5477;48.806;9.154;2023-07-20T14:10:54;1.40;;;1.08;;
10847;SDS011;5477;48.806;9.154;2023-07-20T14:13:25;4.00;;;1.15;;
10847;SDS011;5477;48.806;9.154;2023-07-20T14:16:12;4.88;;;1.10;;
10847;SDS011;5477;48.806;9.154;2023-07-20T14:18:40;1.88;;;1.20;;
10847;SDS011;5477;48.806;9.154;2023-07-20T14:21:08;4.05;;;1.50;;
10847;SDS011;5477;48.806;9.154;2023-07-20T14:23:36;3.17;;;1.40;;
10847;SDS011;5477;48.806;9.154;2023-07-20T14:26:05;1.67;;;1.05;;
10847;SDS011;5477;48.806;9.154;2023-07-20T14:28:36;1.25;;;1.08;;
10847;SDS011;5477;48.806;9.154;2023-07-20T14:31:04;1.38;;;1.10;;
10847;SDS011;5477;48.806;9.154;2023-07-20T14:33:33;1.80;;;1.10;;
10847;SDS011;5477;48.806;9.154;2023-07-20T14:36:02;1.73;;;1.10;;
10847;SDS011;5477;48.806;9.154;2023-07-20T14:38:31;1.98;;;1.00;;
10847;SDS011;5477;48.806;9.154;2023-07-20T14:41:01;2.88;;;1.25;;
10847;SDS011;5477;48.806;9.154;2023-07-20T14:43:29;2.55;;;1.20;;
10847;SDS011;5477;48.806;9.154;2023-07-20T14:45:57;3.30;;;1.20;;
10847;SDS011;5477;48.806;9.154;2023-07-20T14:48:25;2.22;;;1.30;;
10847;SDS011;5477;48.806;9.154;2023-07-20T14:50:54;1.63;;;1.20;;
10847;SDS011;5477;48.806;9.154;2023-07-20T14:53:30;1.40;;;1.20;;
10847;SDS011;5477;48.806;9.154;2023-07-20T14:56:02;1.92;;;1.30;;
10847;SDS011;5477;48.806;9.154;2023-07-20T14:58:31;1.13;;;1.02;;
10847;SDS011;5477;48.806;9.154;2023-07-20T15:01:01;1.05;;;0.90;;
10847;SDS011;5477;48.806;9.154;2023-07-20T15:03:29;4.28;;;1.20;;
10847;SDS011;5477;48.806;9.154;2023-07-20T15:05:59;1.65;;;1.20;;
10847;SDS011;5477;48.806;9.154;2023-07-20T15:08:28;1.00;;;0.90;;
10847;SDS011;5477;48.806;9.154;2023-07-20T15:10:57;1.88;;;1.30;;
10847;SDS011;5477;48.806;9.154;2023-07-20T15:13:25;2.05;;;1.13;;
10847;SDS011;5477;48.806;9.154;2023-07-20T15:15:53;1.17;;;1.08;;
10847;SDS011;5477;48.806;9.154;2023-07-20T15:18:21;1.55;;;1.20;;
10847;SDS011;5477;48.806;9.154;2023-07-20T15:21:10;1.20;;;1.10;;